Detall de PIREP

Printer-friendly versionPDF version

[2015/01/21 09:16:00]
Flight IATA:CT1005
Pilot Number:011
Company ICAO:CAT
Aircraft Type:B738/F
PAX:160
Departing Airport: LEMG
Destination Airport: EETN
Alternate Airport:EFHK
Online: VATSIM
Route:BLN UN865 VTB UN867 DGO UN858 VALEK DCT NOR UZ706 KEGAB DCT ROSOK DCT BAKLI DCT EVONA M611 LOGNA Q33 SULUN
Flight Level:F350
No Slew and time accel
No pause
Crash detect
Detect pilot in Cockpit between each 30 and 45 minutes
09:16 Zero fuel Weight: 133991 Lbs, Fuel Weight: 35978 Lbs
09:16 VATSIM:LEMG 210900Z 30010KT 270V330 9999 FEW020 08/03 Q1015 NOSIG
09:16 VATSIM:EETN 210850Z 11013KT 9999 OVC009 M04/M05 Q1027 R08/190095 NOSIG
09:19 Parking Brakes off
09:34 Take-off
09:34 Take off Weight: 168969 Lbs
09:34 Wind: 310º @ 010 Knots Heading: 311º
09:34 POS N36º 40´ 28´´ W004º 29´ 55´´
09:34 Flaps:5 at 168 Knots
09:34 Gear Up: 173 Knots
09:35 Flaps:4 at 224 Knots
09:35 Flaps:3 at 232 Knots
09:35 Flaps:2 at 236 Knots
09:35 Flaps:1 at 238 Knots
09:35 Flaps:0 at 238 Knots
09:49 Wind:302º@010 Knots Heading: 032º Ground Speed: 401 Knots Altitude 31978 ft
09:51 TOC
09:51 Fuel Weight: 31156 Lb
10:04 Wind:256º@024 Knots Heading: 002º Ground Speed: 461 Knots Altitude 34940 ft
10:19 Wind:245º@025 Knots Heading: 007º Ground Speed: 468 Knots Altitude 34895 ft
10:34 Wind:231º@025 Knots Heading: 028º Ground Speed: 483 Knots Altitude 34822 ft
10:49 Wind:159º@035 Knots Heading: 033º Ground Speed: 483 Knots Altitude 34734 ft
11:04 Wind:145º@040 Knots Heading: 013º Ground Speed: 485 Knots Altitude 34737 ft
11:19 Wind:133º@029 Knots Heading: 022º Ground Speed: 468 Knots Altitude 34799 ft
11:34 Wind:107º@023 Knots Heading: 077º Ground Speed: 435 Knots Altitude 34872 ft
11:49 Wind:089º@023 Knots Heading: 025º Ground Speed: 443 Knots Altitude 34881 ft
12:04 Wind:100º@028 Knots Heading: 041º Ground Speed: 436 Knots Altitude 34996 ft
12:19 Wind:092º@017 Knots Heading: 043º Ground Speed: 436 Knots Altitude 35072 ft
12:34 Wind:242º@016 Knots Heading: 051º Ground Speed: 459 Knots Altitude 35088 ft
12:49 Wind:308º@005 Knots Heading: 055º Ground Speed: 450 Knots Altitude 35055 ft
13:04 Wind:060º@013 Knots Heading: 057º Ground Speed: 434 Knots Altitude 35068 ft
13:19 Wind:100º@033 Knots Heading: 056º Ground Speed: 421 Knots Altitude 35160 ft
13:29 TOD
13:29 Fuel Weight: 11250 Lb
13:34 Wind:099º@056 Knots Heading: 053º Ground Speed: 359 Knots Altitude 26824 ft
13:49 Wind:070º@019 Knots Heading: 020º Ground Speed: 284 Knots Altitude 4616 ft
13:51 Flaps:1 at 227 Knots
13:51 Flaps:2 at 225 Knots
13:51 Flaps:3 at 210 Knots
13:52 Flaps:4 at 195 Knots
13:52 Flaps:5 at 191 Knots
13:53 Flaps:6 at 174 Knots
13:53 Gear Down:162 Knots
13:53 Flaps:7 at 153 Knots
13:54 Flaps:8 at 150 Knots
13:58 TouchDown:Rate -169 ft/min Speed: 122 Knots
13:58 VATSIM:EETN 211350Z 10016KT 9999 OVC013 M04/M06 Q1026 R08/190095 NOSIG
13:58 Land
13:58 Wind:094º@016 Knots
13:58 Heading: 090º
13:58 Flight Duration: 04:24
13:58 Landing Weight: 143636 Lbs
13:58 POS N59º 24´ 47´´ E024º 50´ 09´´
14:00 Parking brakes on
14:00 Block to Block Duration: 04:41
14:00 Final Fuel: 9510 Lbls
14:00 Spent Fuel: 26468 Lbls
14:00 Flight Length: 1753 NM
14:00 TOD Land Length: 133 NM

Exportar CSV

Powered by Drupal - Modified by Danger4k